Aérodrome :
LOGIN :

S'inscrire | Disclaimer

   EN    FR    IT 

 










Légende :    VFR   VFR Marginal   IFR   IFR Intensif   IFR Très Intensif
Visi : 
Plafond : 
>= 8 km
>= 3000ft
5 à 8 km
1000 à 3000 ft
1500m à 5 km
500 à 1000 ft
800 à 1500m
200 à 500 ft
< 800m
< 200 ft
Symboles :   Orages  Brouillard  Fortes neiges  Fortes précipitations  Vent > 20 kt
SIGMETs :   Divers  Orages  Givrage  Turbulence  Onde Orograph.  Cendres Volcan.







- Altitude de l'aérodrome : 821 ft
- Code IATA : LYS
- Voir les cartes d'approche


LFLL - Lyon St Exupéry / Satolas

DERNIER METAR :
  • 240300Z 15006KT CAVOK 04/00 Q1031 NOSIG

METARs EXPIRÉS :
  • 240230Z 14005KT CAVOK 04/00 Q1031 NOSIG
  • 240200Z 16003KT CAVOK 06/01 Q1030 NOSIG
  • 240130Z 18003KT CAVOK 06/01 Q1030 NOSIG
  • 240100Z 25002KT CAVOK 06/02 Q1030 NOSIG
  • 240030Z 15003KT CAVOK 06/02 Q1030 NOSIG

TAF TAF LFLL
Valide du 24 à 00h jusqu'au 25 à 06h UTC


232300Z 2400/2506 VRB02KT CAVOK
PROB40
TEMPO 2404/2411 12005KT BKN014
PROB30
TEMPO 2402/2408 3000 BR
BECMG 2412/2414 36005KT
BECMG 2422/2424 VRB02KT 3000 BR
TEMPO 2503/2506 0800 BCFG
Pas de NOTAMs connus pour ce terrain.
1 SIGMET publié pour la FIR Marseille (LFMM) :
 
Onde orographique forte
LFMM SIGMET 5 VALID 240100/240500 LFPW
LFMM MARSEILLE FIR/UIR SEV MTW FCST WI N4330 E00845 - N4315 E00945 - N4115 E00945 - N4115 E00830 - N4200 E00800 - N4330 E00845 SFC/FL200 STNR NC=



MET'MAP, la Météo Aéronautique d'un coup d'oeil ! - Copyright ORBIFLY Décembre 2007 - Disclaimer

ORBIFLY MET'MAP TEAM :

Programmation & Développement : Alexandra Zaïnal
Conception & Développement : Baudouin d'Aumeries
Co-Programmation & Développement : Marc-Olivier Méhu
Soutien technique & logistique : Manuel Goepfert

Contact : metmap@orbifly.com




SOURCES & CREDITS :

   NOAA